Charlson, North Dakota
Current Conditions -  °F | °C
As of 4:15 AM on Sunday 21 Dec 2014 (Local Time) from K08D Reporting Station
Clear Clear  
Wind Chill: 16°   Ceiling: Unl
Heat Index: 16°   Visibility: 10mi
Dew Point: 16°   Wind: 0mph
Humidity: 100%   Direction: NA
Pressure: 29.6"   Gusts: NA
Location:  47.9603°N, 102.491°W
Report Text: K08D 211015Z AUTO 00000KT 10SM CLR M09/M09 A2960 RMK AO2
Loading
Personal Weather Stations






























Interactive Weather Map New forecast layout! Learn more

10-Day Weather Forecast

Advertisements
Track Severe Weather on mobile